Time;durP1;ratioP1;P1;durP2;ratioP2;P2;SDS_P1;SDS_P2;PMS_P1;PMS_P2;Temp;Humidity;BMP_temperature;BMP_pressure;BME280_temperature;BME280_humidity;BME280_pressure;Samples;Min_cycle;Max_cycle;Signal;HPM_P1;HPM_P2
2022/03/10 00:02:05;;;;;;;22.10;15.07;;;;;;;;;;5052958;28;20065;-78
2022/03/10 00:04:31;;;;;;;20.13;14.75;;;;;;;;;;5053676;28;20502;-77
2022/03/10 00:06:58;;;;;;;19.00;14.60;;;;;;;;;;5054053;28;20408;-78
2022/03/10 00:09:24;;;;;;;19.17;13.18;;;;;;;;;;5053823;28;20049;-78
2022/03/10 00:11:50;;;;;;;19.67;14.55;;;;;;;;;;5053939;28;20041;-79
2022/03/10 00:14:16;;;;;;;22.95;15.50;;;;;;;;;;5053765;28;20036;-79
2022/03/10 00:16:42;;;;;;;22.83;15.98;;;;;;;;;;5052466;28;20396;-79
2022/03/10 00:19:09;;;;;;;20.85;14.60;;;;;;;;;;5053746;28;20052;-78
2022/03/10 00:21:35;;;;;;;21.55;15.40;;;;;;;;;;5053387;28;20021;-78
2022/03/10 00:24:01;;;;;;;21.67;16.13;;;;;;;;;;5053848;28;20021;-78
2022/03/10 00:26:27;;;;;;;19.95;15.07;;;;;;;;;;5053426;28;20071;-78
2022/03/10 00:28:53;;;;;;;22.08;15.10;;;;;;;;;;5053811;28;20031;-78
2022/03/10 00:31:19;;;;;;;22.00;16.20;;;;;;;;;;5053643;28;20029;-77
2022/03/10 00:33:45;;;;;;;19.83;14.13;;;;;;;;;;5053370;28;20032;-77
2022/03/10 00:36:11;;;;;;;21.58;15.50;;;;;;;;;;5053487;28;20079;-76
2022/03/10 00:38:38;;;;;;;20.25;15.93;;;;;;;;;;5054346;28;20036;-78
2022/03/10 00:41:04;;;;;;;21.38;15.63;;;;;;;;;;5055622;28;20029;-77
2022/03/10 00:43:30;;;;;;;21.02;14.75;;;;;;;;;;5053157;28;20135;-78
2022/03/10 00:45:56;;;;;;;21.42;16.00;;;;;;;;;;5053228;28;20488;-77
2022/03/10 00:48:22;;;;;;;24.02;15.88;;;;;;;;;;5053309;28;20029;-79
2022/03/10 00:50:48;;;;;;;24.95;16.10;;;;;;;;;;5052625;28;20021;-78
2022/03/10 00:53:15;;;;;;;22.90;15.05;;;;;;;;;;5053100;28;20043;-79
2022/03/10 00:55:41;;;;;;;19.65;14.23;;;;;;;;;;5052785;28;20025;-78
2022/03/10 00:58:07;;;;;;;20.20;14.40;;;;;;;;;;5053106;28;20232;-78
2022/03/10 01:00:33;;;;;;;19.98;14.57;;;;;;;;;;5052912;28;20025;-78
2022/03/10 01:02:59;;;;;;;22.55;15.30;;;;;;;;;;5052093;28;20037;-77
2022/03/10 01:05:26;;;;;;;19.73;13.48;;;;;;;;;;5052838;28;20029;-78
2022/03/10 01:07:52;;;;;;;20.40;14.88;;;;;;;;;;5052516;28;20021;-78
2022/03/10 01:10:18;;;;;;;18.67;14.65;;;;;;;;;;5052881;28;20483;-78
2022/03/10 01:12:45;;;;;;;19.80;14.40;;;;;;;;;;5052691;28;20463;-78
2022/03/10 01:15:13;;;;;;;18.80;13.55;;;;;;;;;;5052665;28;20028;-78
2022/03/10 01:17:39;;;;;;;22.73;14.80;;;;;;;;;;5051275;28;20036;-78
2022/03/10 01:20:06;;;;;;;20.98;14.27;;;;;;;;;;5052945;28;20040;-77
2022/03/10 01:22:34;;;;;;;21.95;16.25;;;;;;;;;;5052539;28;20029;-78
2022/03/10 01:25:00;;;;;;;20.73;15.13;;;;;;;;;;5052608;28;20025;-78
2022/03/10 01:27:26;;;;;;;20.90;15.13;;;;;;;;;;5052728;28;20060;-78
2022/03/10 01:29:52;;;;;;;19.50;14.00;;;;;;;;;;5052384;28;20118;-78
2022/03/10 01:32:18;;;;;;;21.77;15.23;;;;;;;;;;5052631;28;20025;-77
2022/03/10 01:34:44;;;;;;;23.65;16.23;;;;;;;;;;5052226;28;20064;-78
2022/03/10 01:37:10;;;;;;;20.95;14.75;;;;;;;;;;5052537;28;20029;-78
2022/03/10 01:39:36;;;;;;;18.98;14.18;;;;;;;;;;5052373;28;20032;-79
2022/03/10 01:42:06;;;;;;;19.95;14.60;;;;;;;;;;5052304;28;20495;-78
2022/03/10 01:44:33;;;;;;;19.45;14.15;;;;;;;;;;5052429;28;20111;-78
2022/03/10 01:47:01;;;;;;;21.83;15.23;;;;;;;;;;5051986;28;20028;-78
2022/03/10 01:49:27;;;;;;;19.73;14.10;;;;;;;;;;5053434;28;20029;-77
2022/03/10 01:51:53;;;;;;;20.20;14.43;;;;;;;;;;5053963;28;20048;-78
2022/03/10 01:54:20;;;;;;;20.05;13.90;;;;;;;;;;5052268;28;20063;-78
2022/03/10 01:56:47;;;;;;;19.15;14.18;;;;;;;;;;5051935;28;20021;-78
2022/03/10 01:59:13;;;;;;;19.35;14.25;;;;;;;;;;5052197;28;20029;-78
2022/03/10 02:01:39;;;;;;;20.38;15.73;;;;;;;;;;5051888;28;20061;-79
2022/03/10 02:04:05;;;;;;;19.67;14.30;;;;;;;;;;5052066;28;20040;-79
2022/03/10 02:06:32;;;;;;;23.40;14.35;;;;;;;;;;5052180;28;20021;-78
2022/03/10 02:11:43;;;;;;;20.05;15.05;;;;;;;;;;5051747;28;20086;-79
2022/03/10 02:19:39;;;;;;;22.33;14.80;;;;;;;;;;5056219;28;20075;-78
2022/03/10 02:22:09;;;;;;;19.90;13.63;;;;;;;;;;5055902;28;20037;-78
2022/03/10 02:24:39;;;;;;;22.05;15.38;;;;;;;;;;5056091;28;20029;-78
2022/03/10 02:27:23;;;;;;;21.25;14.60;;;;;;;;;;5055747;28;20033;-79
2022/03/10 02:29:50;;;;;;;19.67;13.75;;;;;;;;;;5055516;28;20111;-78
2022/03/10 02:32:17;;;;;;;19.45;13.55;;;;;;;;;;5055794;28;20029;-78
2022/03/10 02:34:44;;;;;;;22.35;14.82;;;;;;;;;;5055699;28;20025;-78
2022/03/10 02:37:10;;;;;;;23.48;14.18;;;;;;;;;;5055685;28;20029;-78
2022/03/10 02:39:37;;;;;;;21.42;14.98;;;;;;;;;;5055703;28;20025;-78
2022/03/10 02:42:04;;;;;;;18.98;14.32;;;;;;;;;;5055438;28;20356;-77
2022/03/10 02:44:30;;;;;;;23.55;14.43;;;;;;;;;;5055865;28;20024;-78
2022/03/10 02:46:56;;;;;;;20.60;15.07;;;;;;;;;;5055402;28;20492;-78
2022/03/10 02:49:22;;;;;;;22.92;15.38;;;;;;;;;;5055744;28;20057;-78
2022/03/10 02:51:49;;;;;;;22.63;15.23;;;;;;;;;;5055016;28;20053;-78
2022/03/10 02:54:15;;;;;;;21.67;15.20;;;;;;;;;;5055331;28;20111;-78
2022/03/10 02:56:41;;;;;;;23.63;15.57;;;;;;;;;;5054150;28;20032;-79
2022/03/10 02:59:07;;;;;;;21.55;14.73;;;;;;;;;;5055105;28;20035;-78
2022/03/10 03:01:34;;;;;;;19.65;13.50;;;;;;;;;;5057905;28;20036;-78
2022/03/10 03:04:00;;;;;;;21.63;14.45;;;;;;;;;;5054992;28;20095;-79
2022/03/10 03:06:26;;;;;;;20.02;14.27;;;;;;;;;;5055333;28;20110;-79
2022/03/10 03:08:52;;;;;;;23.15;15.57;;;;;;;;;;5054928;28;20460;-79
2022/03/10 03:11:18;;;;;;;20.02;13.88;;;;;;;;;;5054985;28;20037;-78
2022/03/10 03:13:44;;;;;;;21.80;14.90;;;;;;;;;;5055026;28;20036;-78
2022/03/10 03:16:10;;;;;;;21.25;14.93;;;;;;;;;;5054850;28;20442;-78
2022/03/10 03:18:36;;;;;;;23.45;16.10;;;;;;;;;;5054841;28;20037;-79
2022/03/10 03:21:02;;;;;;;20.98;15.02;;;;;;;;;;5054478;28;20025;-78
2022/03/10 03:23:29;;;;;;;23.15;15.48;;;;;;;;;;5054871;28;20060;-79
2022/03/10 03:25:58;;;;;;;23.88;15.25;;;;;;;;;;5054036;28;20032;-79
2022/03/10 03:28:24;;;;;;;25.50;16.85;;;;;;;;;;5053800;28;20047;-79
2022/03/10 03:30:50;;;;;;;29.67;19.48;;;;;;;;;;5054655;28;20033;-78
2022/03/10 03:33:17;;;;;;;31.38;19.30;;;;;;;;;;5054471;28;20487;-79
2022/03/10 03:35:43;;;;;;;24.60;17.25;;;;;;;;;;5054535;28;20500;-79
2022/03/10 03:38:12;;;;;;;22.33;16.27;;;;;;;;;;5052982;28;20025;-79
2022/03/10 03:40:38;;;;;;;26.45;16.85;;;;;;;;;;5054647;28;20029;-79
2022/03/10 03:43:04;;;;;;;24.73;16.77;;;;;;;;;;5054066;28;20484;-79
2022/03/10 03:45:30;;;;;;;23.42;16.63;;;;;;;;;;5054517;28;20017;-79
2022/03/10 03:47:56;;;;;;;25.17;17.02;;;;;;;;;;5054410;28;20058;-79
2022/03/10 03:50:22;;;;;;;23.77;16.88;;;;;;;;;;5054372;28;20029;-79
2022/03/10 03:52:49;;;;;;;24.73;16.65;;;;;;;;;;5052888;28;20075;-79
2022/03/10 03:55:15;;;;;;;27.45;18.25;;;;;;;;;;5054242;28;20035;-79
2022/03/10 03:57:41;;;;;;;26.67;17.08;;;;;;;;;;5054249;28;20017;-79
2022/03/10 04:00:09;;;;;;;24.17;17.02;;;;;;;;;;5054210;28;20033;-79
2022/03/10 04:02:36;;;;;;;22.58;15.30;;;;;;;;;;5054105;28;20090;-79
2022/03/10 04:05:02;;;;;;;23.88;16.27;;;;;;;;;;5052918;28;20369;-79
2022/03/10 04:07:28;;;;;;;23.17;16.15;;;;;;;;;;5054078;28;20112;-79
2022/03/10 04:09:54;;;;;;;23.58;15.90;;;;;;;;;;5054125;28;20056;-79
2022/03/10 04:12:20;;;;;;;22.92;16.15;;;;;;;;;;5055791;28;20036;-79
2022/03/10 04:14:46;;;;;;;25.25;16.92;;;;;;;;;;5054602;28;20029;-79
2022/03/10 04:17:13;;;;;;;24.63;16.17;;;;;;;;;;5053662;28;20460;-79
2022/03/10 04:19:39;;;;;;;24.90;17.35;;;;;;;;;;5053807;28;20036;-79
2022/03/10 04:22:05;;;;;;;24.85;16.75;;;;;;;;;;5053716;28;20029;-78
2022/03/10 04:24:31;;;;;;;22.50;16.05;;;;;;;;;;5053411;28;20025;-79
2022/03/10 04:26:57;;;;;;;23.90;16.27;;;;;;;;;;5053627;28;20021;-79
2022/03/10 04:29:23;;;;;;;50.40;27.55;;;;;;;;;;5053449;28;20420;-79
2022/03/10 04:31:49;;;;;;;43.88;26.83;;;;;;;;;;5053445;28;20029;-79
2022/03/10 04:34:15;;;;;;;28.27;22.77;;;;;;;;;;5053421;28;20032;-79
2022/03/10 04:36:42;;;;;;;28.88;20.95;;;;;;;;;;5053343;28;20025;-79
2022/03/10 04:39:08;;;;;;;28.90;19.38;;;;;;;;;;5053616;28;20064;-79
2022/03/10 04:41:34;;;;;;;24.30;17.90;;;;;;;;;;5053098;28;20176;-78
2022/03/10 04:44:01;;;;;;;26.50;17.10;;;;;;;;;;5053385;28;20036;-79
2022/03/10 04:46:27;;;;;;;23.13;15.75;;;;;;;;;;5053199;28;20033;-79
2022/03/10 04:48:53;;;;;;;25.30;16.92;;;;;;;;;;5053044;28;20074;-79
2022/03/10 04:51:20;;;;;;;25.13;16.17;;;;;;;;;;5052780;28;20041;-79
2022/03/10 04:53:46;;;;;;;22.83;16.13;;;;;;;;;;5051670;28;20306;-78
2022/03/10 04:56:13;;;;;;;23.35;15.60;;;;;;;;;;5053093;28;20052;-78
2022/03/10 04:58:39;;;;;;;21.92;16.40;;;;;;;;;;5052769;28;20021;-79
2022/03/10 05:01:05;;;;;;;20.15;15.13;;;;;;;;;;5052856;28;20039;-78
2022/03/10 05:03:32;;;;;;;20.85;15.15;;;;;;;;;;5051462;28;20079;-79
2022/03/10 05:05:58;;;;;;;20.85;14.73;;;;;;;;;;5052668;28;20380;-78
2022/03/10 05:08:24;;;;;;;24.30;16.77;;;;;;;;;;5052974;28;20500;-79
2022/03/10 05:10:50;;;;;;;26.80;17.33;;;;;;;;;;5052821;28;20025;-80
2022/03/10 05:13:16;;;;;;;27.17;17.65;;;;;;;;;;5052486;28;20036;-76
2022/03/10 05:15:43;;;;;;;22.58;16.63;;;;;;;;;;5052496;28;20025;-79
2022/03/10 05:18:09;;;;;;;21.58;15.38;;;;;;;;;;5052821;28;20032;-77
2022/03/10 05:20:35;;;;;;;17.95;13.07;;;;;;;;;;5052387;28;20029;-78
2022/03/10 05:23:02;;;;;;;25.00;16.02;;;;;;;;;;5053070;28;20488;-78
2022/03/10 05:25:35;;;;;;;21.50;16.02;;;;;;;;;;5052724;28;20456;-79
2022/03/10 05:28:02;;;;;;;21.05;14.35;;;;;;;;;;5052140;28;20033;-78
2022/03/10 05:30:28;;;;;;;23.13;16.13;;;;;;;;;;5051165;28;20440;-79
2022/03/10 05:32:54;;;;;;;20.73;14.55;;;;;;;;;;5052431;28;20025;-79
2022/03/10 05:35:20;;;;;;;23.08;15.70;;;;;;;;;;5052531;28;20025;-78
2022/03/10 05:37:48;;;;;;;25.77;17.05;;;;;;;;;;5052239;28;20028;-79
2022/03/10 05:40:18;;;;;;;24.10;15.65;;;;;;;;;;5052338;28;20171;-78
2022/03/10 05:42:45;;;;;;;25.13;16.98;;;;;;;;;;5050890;28;20032;-78
2022/03/10 05:45:12;;;;;;;26.40;16.58;;;;;;;;;;5052324;28;20469;-79
2022/03/10 05:47:39;;;;;;;21.48;14.73;;;;;;;;;;5052175;28;20029;-80
2022/03/10 05:50:06;;;;;;;21.55;16.05;;;;;;;;;;5050666;28;20037;-81
2022/03/10 05:52:32;;;;;;;18.75;12.98;;;;;;;;;;5051954;28;20057;-80
2022/03/10 05:54:59;;;;;;;26.00;17.13;;;;;;;;;;5052038;28;20036;-80
2022/03/10 05:57:25;;;;;;;24.10;15.73;;;;;;;;;;5052255;28;20095;-79
2022/03/10 05:59:51;;;;;;;26.98;17.55;;;;;;;;;;5051949;28;20025;-80
2022/03/10 06:02:17;;;;;;;30.65;21.17;;;;;;;;;;5052081;28;20025;-80
2022/03/10 06:04:44;;;;;;;31.98;20.58;;;;;;;;;;5051991;28;20029;-80
2022/03/10 06:07:10;;;;;;;38.45;25.42;;;;;;;;;;5050917;28;20416;-80
2022/03/10 06:09:36;;;;;;;30.38;20.20;;;;;;;;;;5051830;28;20029;-80
2022/03/10 06:12:03;;;;;;;28.42;19.38;;;;;;;;;;5051919;28;20090;-81
2022/03/10 06:14:29;;;;;;;30.27;19.55;;;;;;;;;;5050773;28;20179;-80
2022/03/10 06:16:55;;;;;;;34.08;20.92;;;;;;;;;;5051930;28;20021;-79
2022/03/10 06:19:22;;;;;;;26.13;17.83;;;;;;;;;;5051232;28;20036;-82
2022/03/10 06:21:48;;;;;;;26.92;17.05;;;;;;;;;;5047656;28;20045;-81
2022/03/10 06:24:15;;;;;;;27.27;17.52;;;;;;;;;;5051843;28;20040;-81
2022/03/10 06:26:41;;;;;;;25.42;18.13;;;;;;;;;;5051994;28;20108;-78
2022/03/10 06:29:08;;;;;;;31.25;21.13;;;;;;;;;;5050322;28;20039;-75
2022/03/10 06:31:34;;;;;;;27.90;17.20;;;;;;;;;;5051094;28;20037;-81
2022/03/10 06:34:00;;;;;;;25.70;17.05;;;;;;;;;;5047277;28;20025;-79
2022/03/10 06:36:27;;;;;;;22.02;14.35;;;;;;;;;;5041062;28;20036;-80
2022/03/10 06:38:56;;;;;;;24.80;15.30;;;;;;;;;;5041132;28;20026;-80
2022/03/10 06:41:22;;;;;;;25.77;16.27;;;;;;;;;;5047659;28;20098;-79
2022/03/10 06:43:49;;;;;;;25.85;16.70;;;;;;;;;;5049539;28;20032;-80
2022/03/10 06:46:15;;;;;;;26.33;17.00;;;;;;;;;;5047425;28;20037;-80
2022/03/10 06:48:41;;;;;;;23.27;16.13;;;;;;;;;;5039583;28;20036;-78
2022/03/10 06:51:07;;;;;;;25.98;16.95;;;;;;;;;;5049525;28;20037;-78
2022/03/10 06:53:33;;;;;;;27.38;17.10;;;;;;;;;;5049923;28;20092;-78
2022/03/10 06:55:59;;;;;;;32.78;21.58;;;;;;;;;;5043917;28;20492;-78
2022/03/10 06:58:26;;;;;;;28.02;17.85;;;;;;;;;;5036227;28;20551;-79
2022/03/10 07:00:52;;;;;;;21.58;13.98;;;;;;;;;;5050734;28;20484;-79
2022/03/10 07:03:19;;;;;;;25.30;16.30;;;;;;;;;;5053492;28;20150;-78
2022/03/10 07:05:45;;;;;;;24.33;16.48;;;;;;;;;;5053761;28;20670;-79
2022/03/10 07:08:11;;;;;;;28.38;16.65;;;;;;;;;;5047275;28;20064;-78
2022/03/10 07:10:37;;;;;;;21.08;14.63;;;;;;;;;;5040931;28;20123;-80
2022/03/10 07:13:04;;;;;;;23.05;14.43;;;;;;;;;;5048313;28;20060;-76
2022/03/10 07:15:30;;;;;;;27.50;16.80;;;;;;;;;;5053484;28;20087;-82
2022/03/10 07:17:56;;;;;;;24.45;17.52;;;;;;;;;;5050081;28;20498;-80
2022/03/10 07:20:22;;;;;;;22.05;15.63;;;;;;;;;;5042663;28;20033;-78
2022/03/10 07:22:48;;;;;;;24.67;17.27;;;;;;;;;;5041319;28;20041;-81
2022/03/10 07:25:14;;;;;;;19.40;13.48;;;;;;;;;;5043253;28;20026;-80
2022/03/10 07:27:41;;;;;;;25.75;15.98;;;;;;;;;;5034457;28;20099;-78
2022/03/10 07:30:07;;;;;;;22.10;15.85;;;;;;;;;;5049291;28;20067;-80
2022/03/10 07:32:34;;;;;;;23.70;15.48;;;;;;;;;;5045898;28;20068;-78
2022/03/10 07:35:01;;;;;;;30.55;19.60;;;;;;;;;;5046572;28;20025;-77
2022/03/10 07:37:27;;;;;;;20.58;13.40;;;;;;;;;;5053300;28;20025;-80
2022/03/10 07:39:53;;;;;;;18.13;12.95;;;;;;;;;;5053048;28;20055;-79
2022/03/10 07:42:19;;;;;;;18.38;12.50;;;;;;;;;;5052256;28;20476;-80
2022/03/10 07:44:45;;;;;;;19.92;14.57;;;;;;;;;;5038125;28;20504;-79
2022/03/10 07:47:12;;;;;;;18.48;12.95;;;;;;;;;;5052586;28;20480;-79
2022/03/10 07:49:38;;;;;;;18.88;11.95;;;;;;;;;;5052465;28;20032;-77
2022/03/10 07:52:04;;;;;;;16.63;12.18;;;;;;;;;;5050671;28;20053;-79
2022/03/10 07:54:31;;;;;;;16.15;10.77;;;;;;;;;;5044256;28;20033;-78
2022/03/10 07:56:57;;;;;;;16.50;13.00;;;;;;;;;;5036435;28;20025;-79
2022/03/10 07:59:23;;;;;;;16.92;12.10;;;;;;;;;;5052675;28;20451;-80
2022/03/10 08:01:49;;;;;;;18.10;13.38;;;;;;;;;;5051760;28;20547;-78
2022/03/10 08:04:16;;;;;;;19.60;12.25;;;;;;;;;;5052551;28;20491;-77
2022/03/10 08:06:42;;;;;;;19.40;12.40;;;;;;;;;;5050779;28;20029;-78
2022/03/10 08:09:10;;;;;;;19.23;13.30;;;;;;;;;;5052571;28;20496;-79
2022/03/10 08:11:38;;;;;;;17.60;13.35;;;;;;;;;;5051990;28;20025;-77
2022/03/10 08:14:04;;;;;;;19.65;13.32;;;;;;;;;;5052279;28;20139;-80
2022/03/10 08:16:31;;;;;;;18.67;13.70;;;;;;;;;;5051379;28;20021;-79
2022/03/10 08:18:57;;;;;;;17.40;12.73;;;;;;;;;;5052353;28;20120;-76
2022/03/10 08:21:23;;;;;;;19.58;13.75;;;;;;;;;;5051964;28;20078;-78
2022/03/10 08:23:50;;;;;;;21.83;14.13;;;;;;;;;;5052213;28;20037;-78
2022/03/10 08:26:17;;;;;;;21.13;15.00;;;;;;;;;;5052096;28;20025;-78
2022/03/10 08:28:43;;;;;;;39.72;19.23;;;;;;;;;;5052093;28;20549;-77
2022/03/10 08:31:10;;;;;;;21.50;11.50;;;;;;;;;;5051708;28;20029;-78
2022/03/10 08:33:37;;;;;;;144.77;44.30;;;;;;;;;;5052204;28;20025;-79
2022/03/10 08:36:05;;;;;;;127.07;41.25;;;;;;;;;;5051063;28;20385;-77
2022/03/10 08:38:32;;;;;;;16.77;12.65;;;;;;;;;;5051114;28;20021;-78
2022/03/10 08:40:59;;;;;;;18.45;12.60;;;;;;;;;;5051966;28;20064;-78
2022/03/10 08:43:28;;;;;;;18.40;13.93;;;;;;;;;;5051080;28;20033;-80
2022/03/10 08:45:55;;;;;;;17.80;12.23;;;;;;;;;;5032264;28;20037;-77
2022/03/10 08:48:21;;;;;;;16.95;12.40;;;;;;;;;;5050008;28;20357;-77
2022/03/10 08:50:47;;;;;;;19.38;12.18;;;;;;;;;;5051431;28;20476;-77
2022/03/10 08:53:14;;;;;;;15.23;10.80;;;;;;;;;;5048591;28;20029;-77
2022/03/10 08:55:40;;;;;;;16.30;11.93;;;;;;;;;;5040715;28;20037;-79
2022/03/10 08:58:06;;;;;;;16.40;11.82;;;;;;;;;;5051439;28;20044;-77
2022/03/10 09:00:33;;;;;;;18.75;12.90;;;;;;;;;;5045263;28;20028;-77
2022/03/10 09:02:59;;;;;;;18.52;12.43;;;;;;;;;;5045398;28;20127;-77
2022/03/10 09:05:26;;;;;;;15.50;11.02;;;;;;;;;;5045128;28;20039;-78
2022/03/10 09:07:52;;;;;;;16.95;10.68;;;;;;;;;;5043259;28;20027;-78
2022/03/10 09:10:18;;;;;;;15.75;10.63;;;;;;;;;;5048976;28;20037;-78
2022/03/10 09:12:44;;;;;;;13.50;9.65;;;;;;;;;;5044695;28;20408;-80
2022/03/10 09:15:10;;;;;;;14.05;10.70;;;;;;;;;;5046841;28;20086;-78
2022/03/10 09:17:43;;;;;;;14.02;10.07;;;;;;;;;;5051608;28;20025;-82
2022/03/10 09:20:11;;;;;;;15.07;10.60;;;;;;;;;;5049153;28;20032;-79
2022/03/10 09:22:37;;;;;;;16.52;11.35;;;;;;;;;;5051509;28;20037;-77
2022/03/10 09:25:05;;;;;;;16.88;11.50;;;;;;;;;;5050800;28;20028;-78
2022/03/10 09:27:32;;;;;;;17.83;11.98;;;;;;;;;;5044521;28;20095;-79
2022/03/10 09:30:24;;;;;;;15.02;10.73;;;;;;;;;;5047692;28;20028;-78
2022/03/10 09:32:51;;;;;;;11.93;8.88;;;;;;;;;;5031076;28;20036;-78
2022/03/10 09:35:17;;;;;;;14.07;9.77;;;;;;;;;;5036180;28;20033;-83
2022/03/10 09:37:45;;;;;;;15.95;11.38;;;;;;;;;;5049191;28;20033;-76
2022/03/10 09:40:11;;;;;;;36.67;16.80;;;;;;;;;;5051008;28;20029;-80
2022/03/10 09:42:39;;;;;;;18.83;11.77;;;;;;;;;;5050806;28;20043;-81
2022/03/10 09:45:07;;;;;;;15.52;10.50;;;;;;;;;;5049656;28;20056;-77
2022/03/10 09:47:34;;;;;;;12.52;10.82;;;;;;;;;;5051434;28;20737;-80
2022/03/10 09:50:02;;;;;;;15.93;11.02;;;;;;;;;;5054024;28;20082;-77
2022/03/10 09:52:32;;;;;;;13.07;9.43;;;;;;;;;;5050462;28;20044;-81
2022/03/10 09:55:08;;;;;;;17.30;11.57;;;;;;;;;;5050887;28;20094;-83
2022/03/10 09:57:35;;;;;;;15.60;10.93;;;;;;;;;;5051100;28;20033;-81
2022/03/10 10:00:10;;;;;;;15.32;9.07;;;;;;;;;;5051925;28;20460;-81
2022/03/10 10:02:37;;;;;;;15.18;8.82;;;;;;;;;;5051117;28;20051;-80
2022/03/10 10:05:18;;;;;;;13.05;9.98;;;;;;;;;;5051203;28;20036;-82
2022/03/10 10:07:59;;;;;;;13.75;8.93;;;;;;;;;;5030963;28;20079;-81
2022/03/10 10:10:29;;;;;;;14.82;9.48;;;;;;;;;;5031065;28;20061;-77
2022/03/10 10:12:55;;;;;;;11.80;9.43;;;;;;;;;;5030968;28;20473;-80
2022/03/10 10:15:21;;;;;;;14.35;9.98;;;;;;;;;;5030139;28;20494;-82
2022/03/10 10:17:55;;;;;;;10.82;8.43;;;;;;;;;;5050228;28;20036;-78
2022/03/10 10:20:21;;;;;;;14.83;10.87;;;;;;;;;;5050093;28;20035;-79
2022/03/10 10:22:48;;;;;;;14.15;9.20;;;;;;;;;;5050716;28;20297;-78
2022/03/10 10:25:20;;;;;;;11.25;8.05;;;;;;;;;;5050782;28;20029;-78
2022/03/10 10:27:49;;;;;;;13.45;10.35;;;;;;;;;;5050264;28;20060;-77
2022/03/10 10:30:15;;;;;;;17.63;12.27;;;;;;;;;;5050658;28;20104;-80
2022/03/10 10:32:44;;;;;;;12.20;8.57;;;;;;;;;;5050477;28;20435;-80
2022/03/10 10:35:13;;;;;;;11.40;8.57;;;;;;;;;;5049900;28;20032;-81
2022/03/10 10:37:40;;;;;;;11.50;8.65;;;;;;;;;;5054164;28;20033;-76
2022/03/10 10:40:07;;;;;;;12.43;8.32;;;;;;;;;;5053948;28;20033;-84
2022/03/10 10:42:34;;;;;;;12.35;8.35;;;;;;;;;;5053932;28;20048;-80
2022/03/10 10:45:01;;;;;;;13.38;8.82;;;;;;;;;;5054525;28;20480;-78
2022/03/10 10:47:28;;;;;;;11.77;8.93;;;;;;;;;;5053788;28;20029;-80
2022/03/10 10:49:58;;;;;;;9.82;7.05;;;;;;;;;;5051887;28;20047;-79
2022/03/10 10:52:25;;;;;;;10.55;7.25;;;;;;;;;;5042858;28;20055;-79
2022/03/10 10:55:12;;;;;;;13.40;9.80;;;;;;;;;;5053320;28;20037;-83
2022/03/10 10:57:39;;;;;;;11.52;7.95;;;;;;;;;;5054435;28;20029;-78
2022/03/10 11:00:08;;;;;;;15.27;11.30;;;;;;;;;;5054557;28;20029;-77
2022/03/10 11:02:36;;;;;;;11.43;8.98;;;;;;;;;;5053124;28;20036;-76
2022/03/10 11:05:03;;;;;;;9.80;7.82;;;;;;;;;;5053477;28;20476;-80
2022/03/10 11:07:29;;;;;;;20.08;12.30;;;;;;;;;;5053885;28;20021;-81
2022/03/10 11:09:55;;;;;;;11.65;7.03;;;;;;;;;;5054729;28;20484;-83
2022/03/10 11:12:22;;;;;;;10.15;6.28;;;;;;;;;;5053615;28;20021;-79
2022/03/10 11:14:51;;;;;;;9.35;7.07;;;;;;;;;;5053614;28;20123;-79
2022/03/10 11:17:18;;;;;;;15.57;8.30;;;;;;;;;;5052881;28;20033;-79
2022/03/10 11:19:48;;;;;;;9.13;6.45;;;;;;;;;;5054525;28;20036;-80
2022/03/10 11:22:23;;;;;;;12.77;8.68;;;;;;;;;;5053575;28;20440;-79
2022/03/10 11:24:55;;;;;;;12.05;7.45;;;;;;;;;;5053312;28;20033;-77
2022/03/10 11:27:23;;;;;;;7.47;4.88;;;;;;;;;;5053907;28;20416;-80
2022/03/10 11:29:53;;;;;;;13.63;8.68;;;;;;;;;;5053479;28;20086;-78
2022/03/10 11:32:25;;;;;;;9.65;6.97;;;;;;;;;;5053467;28;20472;-76
2022/03/10 11:34:54;;;;;;;8.90;6.13;;;;;;;;;;5053223;28;20033;-80
2022/03/10 11:37:50;;;;;;;11.13;6.60;;;;;;;;;;5053013;28;20503;-79
2022/03/10 11:40:18;;;;;;;11.00;7.15;;;;;;;;;;5051426;28;20025;-76
2022/03/10 11:42:44;;;;;;;12.43;7.75;;;;;;;;;;5052646;28;20033;-79
2022/03/10 11:45:16;;;;;;;9.63;5.80;;;;;;;;;;5053718;28;20021;-78
2022/03/10 11:47:43;;;;;;;15.30;9.65;;;;;;;;;;5047354;28;20029;-77
2022/03/10 11:50:28;;;;;;;15.45;9.75;;;;;;;;;;5053235;28;20081;-79
2022/03/10 11:52:55;;;;;;;;;;;;;;;;;;5052483;28;20059;-80
2022/03/10 11:55:22;;;;;;;12.32;8.77;;;;;;;;;;5050603;28;19991;-80
2022/03/10 11:57:48;;;;;;;7.22;5.63;;;;;;;;;;5051385;28;20040;-78
2022/03/10 12:00:17;;;;;;;8.23;6.53;;;;;;;;;;5053181;28;20052;-76
2022/03/10 12:02:43;;;;;;;8.27;6.10;;;;;;;;;;5052519;28;20032;-79
2022/03/10 12:05:11;;;;;;;15.77;10.65;;;;;;;;;;5052905;28;20493;-78
2022/03/10 12:07:41;;;;;;;11.52;7.25;;;;;;;;;;5053035;28;20100;-80
2022/03/10 12:10:08;;;;;;;11.45;6.10;;;;;;;;;;5055090;28;20053;-80
2022/03/10 12:12:39;;;;;;;11.85;7.78;;;;;;;;;;5051027;28;20124;-78
2022/03/10 12:15:31;;;;;;;9.30;6.65;;;;;;;;;;5051908;28;20029;-79
2022/03/10 12:17:57;;;;;;;7.80;5.82;;;;;;;;;;5050474;28;20174;-81
2022/03/10 12:20:24;;;;;;;54.75;20.15;;;;;;;;;;5051190;28;20099;-82
2022/03/10 12:23:12;;;;;;;50.40;20.13;;;;;;;;;;5052107;28;20541;-78
2022/03/10 12:25:41;;;;;;;32.70;14.20;;;;;;;;;;5052649;28;20033;-79
2022/03/10 12:28:07;;;;;;;13.75;8.75;;;;;;;;;;5052032;28;20024;-80
2022/03/10 12:30:39;;;;;;;13.75;9.05;;;;;;;;;;5052536;28;20080;-79
2022/03/10 12:33:08;;;;;;;9.13;5.95;;;;;;;;;;5052792;28;20099;-77
2022/03/10 12:35:36;;;;;;;11.90;8.07;;;;;;;;;;5053327;28;20028;-79
2022/03/10 12:38:02;;;;;;;9.27;6.45;;;;;;;;;;5052236;28;20495;-80
2022/03/10 12:40:30;;;;;;;5.50;4.00;;;;;;;;;;5052788;28;20025;-80
2022/03/10 12:43:06;;;;;;;9.55;6.97;;;;;;;;;;5052805;28;20492;-81
2022/03/10 12:45:33;;;;;;;5.63;3.95;;;;;;;;;;5052910;28;20383;-81
2022/03/10 12:48:10;;;;;;;6.57;4.95;;;;;;;;;;5052436;28;20051;-78
2022/03/10 12:50:47;;;;;;;16.40;10.95;;;;;;;;;;5051312;28;20025;-79
2022/03/10 12:53:14;;;;;;;7.47;5.05;;;;;;;;;;5052307;28;20132;-78
2022/03/10 12:55:40;;;;;;;5.53;2.95;;;;;;;;;;5065229;28;20034;-79
2022/03/10 12:58:06;;;;;;;5.78;3.65;;;;;;;;;;5073043;28;20064;-79
2022/03/10 13:00:36;;;;;;;9.45;6.55;;;;;;;;;;5072571;28;20074;-80
2022/03/10 13:03:02;;;;;;;6.88;4.57;;;;;;;;;;5072532;28;20040;-84
2022/03/10 13:05:29;;;;;;;4.40;3.05;;;;;;;;;;5072881;28;20028;-81
2022/03/10 13:08:05;;;;;;;6.53;4.38;;;;;;;;;;5072882;28;20025;-80
2022/03/10 13:10:31;;;;;;;5.68;3.95;;;;;;;;;;5056086;28;20029;-82
2022/03/10 13:12:58;;;;;;;5.18;4.00;;;;;;;;;;5052841;28;20963;-78
2022/03/10 13:15:25;;;;;;;5.95;4.22;;;;;;;;;;5052022;28;20033;-81
2022/03/10 13:17:52;;;;;;;6.40;3.83;;;;;;;;;;5052019;28;20025;-78
2022/03/10 13:20:22;;;;;;;8.35;6.38;;;;;;;;;;5052485;28;20033;-80
2022/03/10 13:22:55;;;;;;;8.98;6.53;;;;;;;;;;5052645;28;20483;-81
2022/03/10 13:25:22;;;;;;;3.97;2.88;;;;;;;;;;5053110;28;20083;-79
2022/03/10 13:27:49;;;;;;;4.75;3.88;;;;;;;;;;5052304;28;20032;-79
2022/03/10 13:30:23;;;;;;;3.78;2.70;;;;;;;;;;5052057;28;20029;-80
2022/03/10 13:32:50;;;;;;;17.38;9.70;;;;;;;;;;5051938;28;20021;-80
2022/03/10 13:35:20;;;;;;;9.40;6.85;;;;;;;;;;5052187;28;20111;-81
2022/03/10 13:37:46;;;;;;;16.85;9.82;;;;;;;;;;5050686;28;20087;-77
2022/03/10 13:40:14;;;;;;;12.50;6.60;;;;;;;;;;5051249;28;20028;-83
2022/03/10 13:42:40;;;;;;;16.90;10.95;;;;;;;;;;5051957;28;20035;-82
2022/03/10 13:45:07;;;;;;;12.20;8.02;;;;;;;;;;5050653;28;20033;-80
2022/03/10 13:47:52;;;;;;;21.70;12.15;;;;;;;;;;5049822;28;20064;-78
2022/03/10 13:50:20;;;;;;;11.77;7.50;;;;;;;;;;5050637;28;20539;-78
2022/03/10 13:52:46;;;;;;;12.30;7.53;;;;;;;;;;5051644;28;20131;-80
2022/03/10 13:55:12;;;;;;;27.15;12.15;;;;;;;;;;5050950;28;20029;-79
2022/03/10 13:57:38;;;;;;;22.73;14.60;;;;;;;;;;5051063;28;20036;-81
2022/03/10 14:00:05;;;;;;;18.15;10.05;;;;;;;;;;5051270;28;20115;-81
2022/03/10 14:02:31;;;;;;;21.27;13.98;;;;;;;;;;5050929;28;20029;-80
2022/03/10 14:04:58;;;;;;;25.00;16.85;;;;;;;;;;5052144;28;20032;-81
2022/03/10 14:07:24;;;;;;;20.23;11.57;;;;;;;;;;5051934;28;20036;-77
2022/03/10 14:09:53;;;;;;;8.57;5.10;;;;;;;;;;5052594;28;20079;-81
2022/03/10 14:12:22;;;;;;;17.25;10.07;;;;;;;;;;5056016;28;20036;-80
2022/03/10 14:14:52;;;;;;;21.15;11.05;;;;;;;;;;5055982;28;20033;-78
2022/03/10 14:17:19;;;;;;;15.85;9.52;;;;;;;;;;5055403;28;20025;-77
2022/03/10 14:19:46;;;;;;;11.65;7.68;;;;;;;;;;5054808;28;20029;-77
2022/03/10 14:22:34;;;;;;;29.67;15.65;;;;;;;;;;5054508;28;20090;-80
2022/03/10 14:25:00;;;;;;;12.57;6.25;;;;;;;;;;5055519;28;20029;-77
2022/03/10 14:27:27;;;;;;;14.32;8.02;;;;;;;;;;5055360;28;20025;-80
2022/03/10 14:29:56;;;;;;;14.73;9.32;;;;;;;;;;5054437;28;20048;-79
2022/03/10 14:32:23;;;;;;;16.67;10.10;;;;;;;;;;5053009;28;20032;-79